Fremont, MI

11:19 PM EDT on September 16, 2019 (GMT -0400)
Fremont

Weather History for KFFX - June, 2019

Change the Weather History Date:

Wednesday, June 5, 2019

  Actual Average (KMKG) Record (KMKG)
Temperature  
Mean Temperature 68 °F -  
Max Temperature 75 °F 73 °F 86 °F (2005)
Min Temperature 60 °F 52 °F 36 °F (1990)
Cooling Degree Days 2    
Growing Degree Days 18 (Base 50)    
Moisture  
Dew Point 60 °F    
Average Humidity 81    
Maximum Humidity 100    
Minimum Humidity 60    
Precipitation  
Precipitation 0.00 in - - ()
Sea Level Pressure  
Sea Level Pressure 29.73 in    
Wind  
Wind Speed 4 mph ()    
Max Wind Speed 13 mph    
Max Gust Speed 28 mph    
Visibility 9.0 miles    
Events Fog , Rain    
Averages and records for this station are not official NWS values.
T = Trace of Precipitation, MM = Missing Value Source: Averaged Metar Reports

Daily Weather History Graph

Daily Weather History Graph

Search for Another Location

Airport or City:

Astronomy

Jun. 05, 2019 Rise Set
Actual Time 6:04 AM EDT 9:20 PM EDT
Civil Twilight 5:29 AM EDT 9:56 PM EDT
Nautical Twilight 4:43 AM EDT 10:41 PM EDT
Astronomical Twilight 3:48 AM EDT 11:37 PM EDT
Moon 8:09 AM EDT (6/5) 11:46 PM EDT (6/5)
Length of Visible Light 16h 26m
Length of Day
15h 16m
Waxing Crescent, 6% of the Moon is Illuminated
Jun 5
Waxing Crescent
Jun 10
First Quarter
Jun 17
Full
Jun 25
Last Quarter
Jul 2
New

Hourly Weather History & Observations

Time (EDT) Temp. Dew Point Humidity Pressure Visibility Wind Dir Wind Speed Gust Speed Precip Events Conditions
12:15 AM 63.5 °F 57.7 °F 81% 29.76 in 10.0 mi SE 4.6 mph - N/A   Overcast
12:16 AM 63.7 °F 57.7 °F 81% 29.76 in 10.0 mi SE 4.6 mph - N/A   Overcast
12:36 AM 65.3 °F 55.9 °F 72% 29.76 in 10.0 mi SE 4.6 mph - N/A   Overcast
12:55 AM 66.2 °F 55.0 °F 67% 29.75 in 10.0 mi SE 3.5 mph - N/A   Overcast
12:56 AM 66.2 °F 55.0 °F 67% 29.76 in 10.0 mi Calm Calm - N/A   Overcast
1:16 AM 65.8 °F 55.0 °F 68% 29.76 in 10.0 mi Calm Calm - N/A   Overcast
1:35 AM 64.8 °F 55.4 °F 72% 29.75 in 10.0 mi SE 3.5 mph - N/A   Overcast
1:36 AM 64.6 °F 55.6 °F 73% 29.75 in 10.0 mi SE 3.5 mph - N/A   Overcast
1:55 AM 64.9 °F 55.4 °F 71% 29.74 in 10.0 mi Calm Calm - N/A   Overcast
1:56 AM 64.9 °F 55.4 °F 71% 29.74 in 10.0 mi Calm Calm - N/A   Overcast
2:15 AM 64.4 °F 55.4 °F 73% 29.73 in 10.0 mi Calm Calm - N/A   Mostly Cloudy
2:36 AM 64.4 °F 55.6 °F 73% 29.72 in 10.0 mi South 3.5 mph - N/A   Mostly Cloudy
2:55 AM 63.9 °F 55.9 °F 75% 29.70 in 10.0 mi South 3.5 mph - N/A Rain Light Rain
2:56 AM 63.9 °F 55.9 °F 75% 29.70 in 10.0 mi South 3.5 mph - N/A Rain Light Rain
3:15 AM 63.0 °F 56.3 °F 79% 29.70 in 10.0 mi Calm Calm - N/A   Scattered Clouds
3:17 AM 62.8 °F 56.3 °F 79% 29.70 in 10.0 mi Calm Calm - N/A   Clear
3:35 AM 62.2 °F 56.7 °F 82% 29.70 in 10.0 mi Calm Calm - N/A   Mostly Cloudy
3:36 AM 62.4 °F 56.5 °F 81% 29.70 in 10.0 mi Calm Calm - N/A   Mostly Cloudy
3:55 AM 62.6 °F 56.8 °F 81% 29.70 in 10.0 mi SSW 3.5 mph - N/A   Mostly Cloudy
3:56 AM 62.8 °F 56.8 °F 81% 29.70 in 10.0 mi South 3.5 mph - N/A   Mostly Cloudy
4:16 AM 63.5 °F 57.2 °F 80% 29.72 in 10.0 mi West 4.6 mph 27.6 mph N/A   Mostly Cloudy
4:35 AM 62.4 °F 58.8 °F 88% 29.72 in 10.0 mi Calm Calm - N/A Rain Light Rain
4:36 AM 62.2 °F 59.0 °F 89% 29.72 in 10.0 mi Calm Calm - N/A Rain Light Rain
4:55 AM 61.0 °F 60.1 °F 97% 29.70 in 7.0 mi Calm Calm - N/A Rain Light Rain
4:56 AM 61.0 °F 60.1 °F 97% 29.70 in 7.0 mi Calm Calm - N/A Rain Light Rain
5:15 AM 60.8 °F 60.3 °F 98% 29.69 in 7.0 mi SSE 5.8 mph - N/A   Drizzle
5:35 AM 61.0 °F 59.9 °F 96% 29.69 in 10.0 mi South 4.6 mph - N/A   Scattered Clouds
5:36 AM 60.8 °F 59.9 °F 97% 29.69 in 10.0 mi South 4.6 mph - N/A   Scattered Clouds
5:55 AM 60.4 °F 60.1 °F 99% 29.70 in 7.0 mi SSW 4.6 mph - N/A   Mostly Cloudy
5:56 AM 60.4 °F 60.1 °F 99% 29.70 in 7.0 mi SSW 4.6 mph - N/A   Mostly Cloudy
6:16 AM 60.4 °F 60.3 °F 99% 29.71 in 7.0 mi SSW 5.8 mph - N/A   Overcast
6:35 AM 60.3 °F 60.3 °F 100% 29.72 in 4.0 mi WSW 5.8 mph - N/A   Overcast
6:36 AM 60.3 °F 60.3 °F 100% 29.72 in 4.0 mi WSW 6.9 mph - N/A   Overcast
6:55 AM 60.3 °F 60.3 °F 100% 29.71 in 1.0 mi West 4.6 mph - N/A   Overcast
7:16 AM 60.3 °F 60.3 °F 100% 29.70 in 1.0 mi Calm Calm - N/A   Overcast
7:35 AM 60.4 °F 60.4 °F 100% 29.70 in 0.8 mi Calm Calm - N/A   Overcast
7:55 AM 60.4 °F 60.4 °F 100% 29.69 in 0.2 mi SW 4.6 mph - N/A Fog Fog
7:57 AM 60.4 °F 60.4 °F 100% 29.69 in 0.2 mi SW 4.6 mph - N/A Fog Fog
8:15 AM 60.8 °F 60.8 °F 100% 29.69 in 0.2 mi SSW 6.9 mph - N/A Fog Fog
8:16 AM 60.8 °F 60.8 °F 100% 29.69 in 0.2 mi SSW 6.9 mph - N/A Fog Fog
8:35 AM 60.8 °F 60.8 °F 100% 29.69 in 4.0 mi SW 4.6 mph - N/A   Overcast
8:36 AM 60.8 °F 60.8 °F 100% 29.69 in 4.0 mi WSW 5.8 mph - N/A   Overcast
8:56 AM 61.7 °F 61.7 °F 100% 29.69 in 7.0 mi SW 5.8 mph - N/A   Overcast
9:15 AM 62.1 °F 62.1 °F 100% 29.69 in 5.0 mi WSW 5.8 mph - N/A   Overcast
9:16 AM 62.1 °F 62.1 °F 100% 29.69 in 5.0 mi WSW 4.6 mph - N/A   Overcast
9:36 AM 62.6 °F 62.6 °F 100% 29.69 in 10.0 mi WSW 5.8 mph - N/A   Overcast
9:55 AM 63.5 °F 63.1 °F 99% 29.69 in 10.0 mi SW 6.9 mph - N/A   Overcast
9:56 AM 63.5 °F 63.1 °F 99% 29.69 in 10.0 mi SW 8.1 mph - N/A   Overcast
10:15 AM 63.9 °F 63.1 °F 97% 29.69 in 10.0 mi SW 9.2 mph - N/A   Overcast
10:16 AM 63.9 °F 63.0 °F 97% 29.69 in 10.0 mi SW 9.2 mph - N/A   Overcast
10:35 AM 63.9 °F 62.8 °F 96% 29.70 in 10.0 mi WSW 6.9 mph - N/A   Overcast
10:36 AM 63.9 °F 62.8 °F 96% 29.70 in 10.0 mi WSW 6.9 mph - N/A   Overcast
10:55 AM 64.8 °F 63.3 °F 95% 29.70 in 10.0 mi WSW 6.9 mph - N/A   Overcast
10:56 AM 64.9 °F 63.3 °F 94% 29.70 in 10.0 mi West 6.9 mph - N/A   Overcast
11:15 AM 65.7 °F 63.5 °F 93% 29.70 in 10.0 mi West 6.9 mph - N/A   Overcast
11:35 AM 66.2 °F 63.1 °F 90% 29.70 in 10.0 mi Calm Calm - N/A   Overcast
11:36 AM 66.2 °F 63.1 °F 90% 29.70 in 10.0 mi West 3.5 mph - N/A   Overcast
11:55 AM 67.8 °F 62.4 °F 83% 29.71 in 10.0 mi West 3.5 mph - N/A   Overcast
11:56 AM 67.8 °F 62.4 °F 83% 29.71 in 10.0 mi West 4.6 mph - N/A   Overcast
12:15 PM 68.5 °F 61.9 °F 79% 29.71 in 10.0 mi West 6.9 mph - N/A   Overcast
12:17 PM 69.1 °F 62.1 °F 78% 29.71 in 10.0 mi West 5.8 mph - N/A   Overcast
12:35 PM 70.0 °F 62.1 °F 76% 29.72 in 10.0 mi WNW 8.1 mph - N/A   Overcast
12:55 PM 68.7 °F 61.9 °F 79% 29.72 in 10.0 mi NW 6.9 mph - N/A   Overcast
1:15 PM 68.2 °F 61.7 °F 80% 29.71 in 10.0 mi WSW 5.8 mph - N/A   Overcast
1:17 PM 68.2 °F 61.5 °F 79% 29.71 in 10.0 mi WSW 4.6 mph - N/A   Overcast
1:35 PM 69.3 °F 61.7 °F 77% 29.71 in 10.0 mi West 4.6 mph - N/A   Mostly Cloudy
1:36 PM 69.4 °F 61.7 °F 76% 29.71 in 10.0 mi West 4.6 mph - N/A   Mostly Cloudy
1:55 PM 72.7 °F 61.7 °F 68% 29.71 in 10.0 mi West 5.8 mph - N/A   Mostly Cloudy
1:56 PM 72.9 °F 61.7 °F 68% 29.71 in 10.0 mi West 8.1 mph - N/A   Mostly Cloudy
2:15 PM 72.5 °F 61.5 °F 68% 29.72 in 10.0 mi WNW 6.9 mph - N/A   Mostly Cloudy
2:16 PM 72.5 °F 61.7 °F 69% 29.72 in 10.0 mi NW 6.9 mph - N/A   Mostly Cloudy
2:35 PM 72.5 °F 62.4 °F 71% 29.72 in 10.0 mi WNW 5.8 mph - N/A   Overcast
2:36 PM 72.7 °F 62.6 °F 71% 29.72 in 10.0 mi WNW 5.8 mph - N/A   Overcast
2:56 PM 73.2 °F 61.9 °F 68% 29.72 in 10.0 mi NNW 3.5 mph - N/A   Overcast
3:15 PM 73.4 °F 61.7 °F 67% 29.72 in 10.0 mi NW 6.9 mph - N/A   Mostly Cloudy
3:16 PM 73.4 °F 61.7 °F 67% 29.72 in 10.0 mi WNW 8.1 mph - N/A   Mostly Cloudy
3:36 PM 74.7 °F 61.7 °F 64% 29.72 in 10.0 mi NW 6.9 mph - N/A   Mostly Cloudy
3:55 PM 74.7 °F 61.3 °F 63% 29.72 in 10.0 mi NW 11.5 mph - N/A   Overcast
3:56 PM 74.5 °F 61.2 °F 63% 29.72 in 10.0 mi NW 12.7 mph - N/A   Overcast
4:15 PM 74.7 °F 61.0 °F 62% 29.72 in 10.0 mi WNW 9.2 mph - N/A   Mostly Cloudy
4:35 PM 74.5 °F 61.5 °F 64% 29.72 in 10.0 mi NW 8.1 mph - N/A   Clear
4:36 PM 74.3 °F 61.7 °F 65% 29.72 in 10.0 mi NNW 9.2 mph - N/A   Clear
4:55 PM 73.9 °F 61.2 °F 64% 29.73 in 10.0 mi NW 10.4 mph - N/A   Clear
5:15 PM 74.1 °F 61.7 °F 65% 29.74 in 10.0 mi NW 9.2 mph - N/A   Scattered Clouds
5:16 PM 74.1 °F 61.7 °F 65% 29.74 in 10.0 mi NW 10.4 mph - N/A   Scattered Clouds
5:35 PM 74.3 °F 61.0 °F 63% 29.74 in 10.0 mi NW 9.2 mph - N/A   Scattered Clouds
5:36 PM 74.3 °F 61.0 °F 63% 29.74 in 10.0 mi NNW 9.2 mph - N/A   Scattered Clouds
5:56 PM 75.0 °F 60.4 °F 60% 29.74 in 10.0 mi NW 9.2 mph - N/A   Clear
6:15 PM 74.5 °F 60.6 °F 62% 29.74 in 10.0 mi NNW 9.2 mph - N/A   Clear
6:16 PM 74.1 °F 60.4 °F 62% 29.74 in 10.0 mi NNW 9.2 mph - N/A   Clear
6:35 PM 73.4 °F 60.4 °F 64% 29.74 in 10.0 mi North 6.9 mph - N/A   Scattered Clouds
6:37 PM 73.4 °F 60.6 °F 64% 29.74 in 10.0 mi North 5.8 mph - N/A   Mostly Cloudy
6:55 PM 72.7 °F 60.3 °F 65% 29.74 in 10.0 mi North 8.1 mph - N/A   Scattered Clouds
6:56 PM 72.7 °F 60.1 °F 64% 29.74 in 10.0 mi North 8.1 mph - N/A   Scattered Clouds
7:15 PM 72.5 °F 60.4 °F 66% 29.74 in 10.0 mi North 8.1 mph - N/A   Clear
7:35 PM 73.8 °F 61.3 °F 65% 29.74 in 10.0 mi NNW 5.8 mph - N/A   Clear
7:36 PM 73.8 °F 61.3 °F 65% 29.74 in 10.0 mi NNW 4.6 mph - N/A   Clear
7:55 PM 73.0 °F 61.0 °F 66% 29.74 in 10.0 mi NNW 8.1 mph - N/A   Clear
7:56 PM 73.0 °F 61.0 °F 66% 29.74 in 10.0 mi NNW 9.2 mph - N/A   Clear
8:15 PM 72.0 °F 60.8 °F 68% 29.75 in 10.0 mi NNW 6.9 mph - N/A   Clear
8:17 PM 71.8 °F 60.6 °F 68% 29.75 in 10.0 mi NNW 6.9 mph - N/A   Clear
8:35 PM 70.9 °F 61.0 °F 71% 29.76 in 10.0 mi NNW 4.6 mph - N/A   Clear
8:36 PM 70.9 °F 61.0 °F 71% 29.76 in 10.0 mi NNW 4.6 mph - N/A   Clear
8:55 PM 68.9 °F 61.0 °F 76% 29.77 in 10.0 mi NW 5.8 mph - N/A   Clear
8:56 PM 68.9 °F 61.0 °F 76% 29.77 in 10.0 mi NW 5.8 mph - N/A   Clear
9:15 PM 67.8 °F 61.2 °F 79% 29.77 in 10.0 mi NW 4.6 mph - N/A   Clear
9:35 PM 66.9 °F 61.3 °F 82% 29.78 in 10.0 mi WNW 4.6 mph - N/A   Clear
9:36 PM 66.9 °F 61.3 °F 82% 29.78 in 10.0 mi WNW 4.6 mph - N/A   Clear
9:55 PM 66.0 °F 61.2 °F 84% 29.78 in 10.0 mi Calm Calm - N/A   Clear
9:56 PM 65.8 °F 61.2 °F 85% 29.78 in 10.0 mi Calm Calm - N/A   Clear
10:15 PM 65.1 °F 62.4 °F 91% 29.78 in 10.0 mi NNW 3.5 mph - N/A   Clear
10:16 PM 65.1 °F 62.4 °F 91% 29.78 in 10.0 mi NNW 3.5 mph - N/A   Clear
10:35 PM 63.9 °F 62.1 °F 94% 29.79 in 10.0 mi NW 4.6 mph - N/A   Clear
10:55 PM 63.1 °F 61.9 °F 96% 29.80 in 10.0 mi WNW 3.5 mph - N/A   Clear
10:56 PM 63.1 °F 61.9 °F 96% 29.80 in 10.0 mi NW 3.5 mph - N/A   Clear
11:15 PM 62.4 °F 61.3 °F 96% 29.81 in 10.0 mi NNW 4.6 mph - N/A   Clear
11:17 PM 62.1 °F 61.2 °F 97% 29.81 in 10.0 mi NNW 4.6 mph - N/A   Clear
11:35 PM 61.9 °F 61.2 °F 97% 29.82 in 10.0 mi NW 3.5 mph - N/A   Clear
11:36 PM 61.9 °F 61.2 °F 97% 29.82 in 10.0 mi NW 3.5 mph - N/A   Clear
11:55 PM 61.3 °F 60.8 °F 98% 29.83 in 10.0 mi NNW 4.6 mph - N/A   Clear